Time;durP1;ratioP1;P1;durP2;ratioP2;P2;SDS_P1;SDS_P2;PMS_P1;PMS_P2;Temp;Humidity;BMP_temperature;BMP_pressure;BME280_temperature;BME280_humidity;BME280_pressure;Samples;Min_cycle;Max_cycle;Signal;HPM_P1;HPM_P2
2023/01/16 00:01:20;;;;;;;18.52;17.73;;;;;;;;;;5107768;28;20205;-77
2023/01/16 00:03:47;;;;;;;18.02;17.13;;;;;;;;;;5105402;28;20255;-77
2023/01/16 00:06:14;;;;;;;18.17;17.27;;;;;;;;;;5105654;28;20266;-76
2023/01/16 00:08:42;;;;;;;18.73;17.37;;;;;;;;;;5107498;28;20443;-77
2023/01/16 00:11:09;;;;;;;18.40;17.30;;;;;;;;;;5104760;28;20440;-77
2023/01/16 00:13:36;;;;;;;18.33;17.33;;;;;;;;;;5105790;28;21007;-77
2023/01/16 00:16:04;;;;;;;18.27;17.40;;;;;;;;;;5105916;28;20467;-77
2023/01/16 00:18:31;;;;;;;19.20;17.90;;;;;;;;;;5104688;28;20225;-76
2023/01/16 00:20:58;;;;;;;18.88;17.83;;;;;;;;;;5105016;28;20455;-77
2023/01/16 00:23:25;;;;;;;18.87;17.77;;;;;;;;;;5101934;28;20238;-78
2023/01/16 00:25:53;;;;;;;18.42;17.52;;;;;;;;;;5104310;28;20501;-77
2023/01/16 00:28:20;;;;;;;18.97;17.90;;;;;;;;;;5104023;28;20206;-77
2023/01/16 00:30:47;;;;;;;18.35;17.45;;;;;;;;;;5102160;28;20436;-77
2023/01/16 00:33:16;;;;;;;18.48;17.45;;;;;;;;;;5097202;28;20205;-78
2023/01/16 00:35:43;;;;;;;17.90;17.00;;;;;;;;;;5094757;28;20732;-77
2023/01/16 00:38:10;;;;;;;17.98;17.17;;;;;;;;;;5095036;28;20563;-77
2023/01/16 00:40:37;;;;;;;18.35;17.25;;;;;;;;;;5094786;28;20202;-77
2023/01/16 00:43:04;;;;;;;17.83;17.02;;;;;;;;;;5094520;28;20208;-77
2023/01/16 00:45:31;;;;;;;18.00;17.20;;;;;;;;;;5097539;28;20236;-77
2023/01/16 00:47:58;;;;;;;18.53;17.37;;;;;;;;;;5097109;28;20766;-77
2023/01/16 00:50:26;;;;;;;17.87;17.07;;;;;;;;;;5097888;28;20931;-77
2023/01/16 00:52:53;;;;;;;18.50;17.55;;;;;;;;;;5097523;28;20411;-78
2023/01/16 00:55:20;;;;;;;17.17;16.37;;;;;;;;;;5097347;28;20205;-78
2023/01/16 00:57:47;;;;;;;18.25;17.00;;;;;;;;;;5096780;28;20450;-78
2023/01/16 01:00:15;;;;;;;17.60;16.70;;;;;;;;;;5097046;28;20205;-77
2023/01/16 01:02:42;;;;;;;17.65;16.75;;;;;;;;;;5097113;28;20605;-77
2023/01/16 01:05:10;;;;;;;17.70;16.90;;;;;;;;;;5096073;28;20208;-77
2023/01/16 01:07:38;;;;;;;18.13;17.33;;;;;;;;;;5097921;28;20224;-77
2023/01/16 01:10:05;;;;;;;18.13;17.23;;;;;;;;;;5101105;28;20188;-77
2023/01/16 01:12:32;;;;;;;17.67;16.80;;;;;;;;;;5107915;28;20210;-79
2023/01/16 01:14:59;;;;;;;18.25;17.45;;;;;;;;;;5105742;28;20446;-78
2023/01/16 01:17:26;;;;;;;19.63;18.53;;;;;;;;;;5105473;28;20617;-78
2023/01/16 01:19:53;;;;;;;19.35;18.33;;;;;;;;;;5104938;28;20489;-77
2023/01/16 01:22:20;;;;;;;18.20;17.23;;;;;;;;;;5104529;28;20226;-78
2023/01/16 01:24:50;;;;;;;18.33;17.40;;;;;;;;;;5104591;28;20944;-78
2023/01/16 01:27:17;;;;;;;18.40;17.48;;;;;;;;;;5104875;28;20282;-78
2023/01/16 01:29:44;;;;;;;18.17;17.17;;;;;;;;;;5104990;28;20197;-77
2023/01/16 01:32:11;;;;;;;18.00;17.00;;;;;;;;;;5104084;28;20575;-78
2023/01/16 01:34:38;;;;;;;17.05;16.25;;;;;;;;;;5104346;28;20205;-77
2023/01/16 01:37:06;;;;;;;18.15;17.25;;;;;;;;;;5104519;28;20279;-78
2023/01/16 01:39:34;;;;;;;17.77;16.88;;;;;;;;;;5104687;28;20225;-78
2023/01/16 01:44:50;;;;;;;18.50;17.30;;;;;;;;;;5104275;28;20230;-78
2023/01/16 01:47:22;;;;;;;18.50;17.60;;;;;;;;;;5105610;28;20229;-77
2023/01/16 01:49:51;;;;;;;18.42;17.38;;;;;;;;;;5108245;28;20452;-76
2023/01/16 01:52:19;;;;;;;18.20;17.00;;;;;;;;;;5107526;28;20210;-77
2023/01/16 01:54:47;;;;;;;17.30;16.35;;;;;;;;;;5106530;28;20237;-77
2023/01/16 01:57:16;;;;;;;18.02;16.67;;;;;;;;;;5106253;28;20744;-77
2023/01/16 01:59:48;;;;;;;17.50;16.45;;;;;;;;;;5107794;28;20230;-77
2023/01/16 02:02:18;;;;;;;17.92;16.77;;;;;;;;;;5106804;28;20188;-77
2023/01/16 02:04:46;;;;;;;17.17;16.35;;;;;;;;;;5106363;28;20570;-77
2023/01/16 02:07:15;;;;;;;17.73;16.90;;;;;;;;;;5107341;28;20225;-81
2023/01/16 02:09:42;;;;;;;17.60;16.73;;;;;;;;;;5098057;28;20257;-77
2023/01/16 02:12:10;;;;;;;17.55;16.75;;;;;;;;;;5102101;28;20249;-76
2023/01/16 02:14:40;;;;;;;17.70;16.90;;;;;;;;;;5112345;28;20210;-77
2023/01/16 02:19:56;;;;;;;18.02;17.27;;;;;;;;;;5107272;28;20224;-78
2023/01/16 02:22:36;;;;;;;18.48;17.67;;;;;;;;;;5105957;28;20220;-79
2023/01/16 02:25:19;;;;;;;18.60;17.80;;;;;;;;;;5106958;28;20685;-77
2023/01/16 02:27:58;;;;;;;18.52;17.73;;;;;;;;;;5104820;28;20271;-77
2023/01/16 02:30:31;;;;;;;18.95;18.08;;;;;;;;;;5108837;28;20196;-78
2023/01/16 02:33:05;;;;;;;18.63;17.83;;;;;;;;;;5105431;28;20239;-77
2023/01/16 02:35:46;;;;;;;17.20;16.50;;;;;;;;;;5100893;28;20189;-78
2023/01/16 02:38:17;;;;;;;17.30;16.60;;;;;;;;;;5102718;28;20215;-77
2023/01/16 02:40:47;;;;;;;18.35;17.45;;;;;;;;;;5107590;28;20195;-77
2023/01/16 02:43:19;;;;;;;18.67;17.88;;;;;;;;;;5105995;28;20213;-78
2023/01/16 02:45:50;;;;;;;19.15;18.25;;;;;;;;;;5106795;28;20185;-78
2023/01/16 02:48:23;;;;;;;18.15;17.35;;;;;;;;;;5105311;28;20235;-77
2023/01/16 02:50:54;;;;;;;18.55;17.65;;;;;;;;;;5106114;28;20234;-78
2023/01/16 02:53:23;;;;;;;18.55;17.60;;;;;;;;;;5105512;28;20216;-78
2023/01/16 02:55:53;;;;;;;18.08;17.17;;;;;;;;;;5104022;28;20194;-77
2023/01/16 02:58:21;;;;;;;19.17;18.17;;;;;;;;;;5102102;28;20340;-78
2023/01/16 03:00:52;;;;;;;18.10;17.30;;;;;;;;;;5103954;28;20216;-77
2023/01/16 03:03:31;;;;;;;17.77;16.90;;;;;;;;;;5101752;28;20232;-78
2023/01/16 03:06:04;;;;;;;17.30;16.60;;;;;;;;;;5103552;28;20210;-78
2023/01/16 03:08:38;;;;;;;18.25;17.35;;;;;;;;;;5103458;28;20212;-77
2023/01/16 03:11:13;;;;;;;18.10;17.30;;;;;;;;;;5102557;28;20208;-78
2023/01/16 03:13:46;;;;;;;19.30;18.25;;;;;;;;;;5103658;28;20258;-76
2023/01/16 03:16:16;;;;;;;18.58;17.67;;;;;;;;;;5103493;28;20224;-77
2023/01/16 03:18:48;;;;;;;17.90;17.10;;;;;;;;;;5099692;28;20265;-77
2023/01/16 03:21:18;;;;;;;18.87;17.80;;;;;;;;;;5101819;28;20190;-77
2023/01/16 03:23:49;;;;;;;18.30;17.40;;;;;;;;;;5096873;28;20489;-77
2023/01/16 03:26:17;;;;;;;18.35;17.55;;;;;;;;;;5096980;28;20278;-76
2023/01/16 03:28:52;;;;;;;18.33;17.52;;;;;;;;;;5097136;28;20282;-78
2023/01/16 03:31:22;;;;;;;17.80;17.10;;;;;;;;;;5096950;28;20261;-78
2023/01/16 03:33:58;;;;;;;17.80;17.10;;;;;;;;;;5096509;28;20208;-78
2023/01/16 03:36:26;;;;;;;17.90;17.10;;;;;;;;;;5097613;28;21190;-76
2023/01/16 03:38:53;;;;;;;18.45;17.55;;;;;;;;;;5097031;28;20689;-77
2023/01/16 03:41:23;;;;;;;18.98;18.13;;;;;;;;;;5098173;28;20201;-77
2023/01/16 03:43:53;;;;;;;16.95;16.15;;;;;;;;;;5097472;28;20226;-76
2023/01/16 03:46:23;;;;;;;18.30;17.23;;;;;;;;;;5097726;28;20615;-77
2023/01/16 03:48:54;;;;;;;18.17;17.38;;;;;;;;;;5097179;28;20566;-77
2023/01/16 03:51:24;;;;;;;18.85;17.90;;;;;;;;;;5097953;28;20267;-76
2023/01/16 03:53:54;;;;;;;18.98;17.70;;;;;;;;;;5098125;28;20204;-76
2023/01/16 03:56:22;;;;;;;19.52;18.25;;;;;;;;;;5097047;28;20217;-76
2023/01/16 03:58:50;;;;;;;17.88;17.17;;;;;;;;;;5097110;28;20220;-77
2023/01/16 04:01:22;;;;;;;17.58;16.77;;;;;;;;;;5096582;28;20197;-76
2023/01/16 04:03:54;;;;;;;18.20;17.13;;;;;;;;;;5097375;28;20185;-75
2023/01/16 04:06:25;;;;;;;19.10;18.00;;;;;;;;;;5098246;28;20223;-75
2023/01/16 04:08:53;;;;;;;18.35;17.42;;;;;;;;;;5100259;28;20216;-76
2023/01/16 04:11:21;;;;;;;17.95;17.15;;;;;;;;;;5101731;28;20234;-76
2023/01/16 04:13:51;;;;;;;18.45;17.45;;;;;;;;;;5097607;28;20248;-77
2023/01/16 04:16:19;;;;;;;18.00;17.10;;;;;;;;;;5097428;28;20229;-76
2023/01/16 04:18:47;;;;;;;18.30;17.30;;;;;;;;;;5097490;28;20234;-75
2023/01/16 04:21:14;;;;;;;18.58;17.77;;;;;;;;;;5096943;28;20197;-77
2023/01/16 04:23:43;;;;;;;18.90;18.00;;;;;;;;;;5099204;28;20205;-77
2023/01/16 04:26:10;;;;;;;18.13;17.15;;;;;;;;;;5097628;28;20229;-76
2023/01/16 04:28:37;;;;;;;17.92;17.13;;;;;;;;;;5098032;28;20238;-76
2023/01/16 04:31:04;;;;;;;19.27;18.35;;;;;;;;;;5097174;28;20209;-76
2023/01/16 04:33:31;;;;;;;18.75;17.88;;;;;;;;;;5096725;28;20209;-77
2023/01/16 04:35:58;;;;;;;18.50;17.60;;;;;;;;;;5097358;28;20211;-77
2023/01/16 04:38:25;;;;;;;17.58;16.77;;;;;;;;;;5095773;28;20621;-76
2023/01/16 04:40:55;;;;;;;18.42;17.52;;;;;;;;;;5097398;28;20277;-76
2023/01/16 04:43:22;;;;;;;18.08;17.17;;;;;;;;;;5095455;28;20199;-76
2023/01/16 04:45:49;;;;;;;17.65;16.65;;;;;;;;;;5101634;28;20219;-76
2023/01/16 04:48:16;;;;;;;17.98;16.98;;;;;;;;;;5103146;28;20200;-76
2023/01/16 04:50:43;;;;;;;17.73;16.88;;;;;;;;;;5107152;28;20670;-79
2023/01/16 04:53:10;;;;;;;17.70;16.80;;;;;;;;;;5104970;28;20213;-78
2023/01/16 04:55:37;;;;;;;18.60;17.70;;;;;;;;;;5102896;28;20216;-77
2023/01/16 04:58:05;;;;;;;18.10;17.30;;;;;;;;;;5102099;28;20680;-76
2023/01/16 05:00:32;;;;;;;19.38;18.35;;;;;;;;;;5102291;28;20220;-78
2023/01/16 05:02:59;;;;;;;18.58;17.73;;;;;;;;;;5102258;28;20209;-78
2023/01/16 05:05:26;;;;;;;18.20;17.10;;;;;;;;;;5102871;28;20274;-76
2023/01/16 05:10:34;;;;;;;18.77;17.98;;;;;;;;;;5102776;28;20196;-77
2023/01/16 05:13:01;;;;;;;18.35;17.55;;;;;;;;;;5100662;28;20252;-78
2023/01/16 05:15:30;;;;;;;18.60;17.70;;;;;;;;;;5103316;28;20250;-78
2023/01/16 05:17:57;;;;;;;19.70;18.55;;;;;;;;;;5102561;28;20253;-78
2023/01/16 05:20:24;;;;;;;18.33;17.40;;;;;;;;;;5103474;28;20216;-77
2023/01/16 05:22:51;;;;;;;18.60;17.60;;;;;;;;;;5102314;28;20624;-78
2023/01/16 05:25:18;;;;;;;18.48;17.50;;;;;;;;;;5100661;28;20553;-79
2023/01/16 05:27:49;;;;;;;19.35;18.20;;;;;;;;;;5100306;28;20642;-78
2023/01/16 05:30:16;;;;;;;19.05;18.15;;;;;;;;;;5101973;28;20247;-78
2023/01/16 05:32:45;;;;;;;18.70;17.83;;;;;;;;;;5101238;28;20594;-77
2023/01/16 05:35:13;;;;;;;18.00;17.20;;;;;;;;;;5100571;28;20214;-77
2023/01/16 05:37:40;;;;;;;18.83;17.92;;;;;;;;;;5101105;28;20279;-76
2023/01/16 05:40:07;;;;;;;18.60;17.80;;;;;;;;;;5101077;28;20279;-77
2023/01/16 05:42:34;;;;;;;18.40;17.60;;;;;;;;;;5100807;28;20209;-77
2023/01/16 05:45:01;;;;;;;18.92;18.02;;;;;;;;;;5102974;28;20201;-77
2023/01/16 05:47:28;;;;;;;18.83;17.92;;;;;;;;;;5102651;28;20627;-77
2023/01/16 05:49:58;;;;;;;19.60;18.40;;;;;;;;;;5102229;28;20538;-77
2023/01/16 05:52:25;;;;;;;25.95;23.85;;;;;;;;;;5102682;28;20730;-77
2023/01/16 05:54:52;;;;;;;36.35;30.92;;;;;;;;;;5101547;28;20759;-76
2023/01/16 05:57:20;;;;;;;20.20;19.10;;;;;;;;;;5096705;28;20235;-77
2023/01/16 05:59:48;;;;;;;22.00;20.80;;;;;;;;;;5096741;28;20689;-77
2023/01/16 06:02:15;;;;;;;20.60;19.55;;;;;;;;;;5097920;28;20205;-77
2023/01/16 06:04:42;;;;;;;19.10;18.20;;;;;;;;;;5096442;28;20263;-78
2023/01/16 06:07:11;;;;;;;18.73;17.50;;;;;;;;;;5096861;28;20270;-77
2023/01/16 06:09:38;;;;;;;17.98;17.10;;;;;;;;;;5097378;28;20209;-77
2023/01/16 06:12:07;;;;;;;18.40;17.50;;;;;;;;;;5097467;28;20263;-77
2023/01/16 06:14:34;;;;;;;18.88;17.95;;;;;;;;;;5096368;28;20664;-78
2023/01/16 06:17:01;;;;;;;18.80;17.90;;;;;;;;;;5096863;28;20282;-77
2023/01/16 06:19:28;;;;;;;19.00;18.10;;;;;;;;;;5097132;28;20269;-77
2023/01/16 06:21:55;;;;;;;19.70;18.70;;;;;;;;;;5096694;28;20221;-77
2023/01/16 06:24:23;;;;;;;19.75;18.85;;;;;;;;;;5096324;28;20274;-78
2023/01/16 06:26:50;;;;;;;19.75;18.75;;;;;;;;;;5095689;28;20225;-78
2023/01/16 06:29:17;;;;;;;20.07;18.97;;;;;;;;;;5096991;28;20194;-79
2023/01/16 06:31:44;;;;;;;19.67;18.67;;;;;;;;;;5096946;28;20496;-76
2023/01/16 06:34:11;;;;;;;20.65;19.55;;;;;;;;;;5095856;28;20201;-77
2023/01/16 06:36:38;;;;;;;18.63;17.73;;;;;;;;;;5096220;28;20638;-76
2023/01/16 06:39:05;;;;;;;19.35;18.45;;;;;;;;;;5096489;28;20219;-77
2023/01/16 06:41:34;;;;;;;20.17;18.90;;;;;;;;;;5095730;28;20300;-79
2023/01/16 06:44:01;;;;;;;20.77;19.55;;;;;;;;;;5095917;28;20338;-76
2023/01/16 06:46:28;;;;;;;20.23;19.23;;;;;;;;;;5095936;28;20236;-78
2023/01/16 06:48:55;;;;;;;19.58;18.63;;;;;;;;;;5096456;28;20208;-76
2023/01/16 06:51:22;;;;;;;19.33;18.42;;;;;;;;;;5096576;28;20227;-77
2023/01/16 06:53:48;;;;;;;19.65;18.75;;;;;;;;;;5095193;28;20257;-76
2023/01/16 06:56:17;;;;;;;20.42;19.33;;;;;;;;;;5095993;28;20696;-77
2023/01/16 06:58:45;;;;;;;24.35;22.95;;;;;;;;;;5095975;28;20284;-76
2023/01/16 07:01:12;;;;;;;21.20;19.98;;;;;;;;;;5096402;28;20267;-77
2023/01/16 07:03:39;;;;;;;20.85;19.73;;;;;;;;;;5095529;28;20305;-76
2023/01/16 07:06:06;;;;;;;20.27;19.00;;;;;;;;;;5095574;28;20233;-78
2023/01/16 07:08:33;;;;;;;19.33;18.25;;;;;;;;;;5095691;28;20711;-76
2023/01/16 07:11:00;;;;;;;19.25;18.25;;;;;;;;;;5095924;28;20201;-77
2023/01/16 07:13:28;;;;;;;18.90;17.90;;;;;;;;;;5095451;28;20754;-76
2023/01/16 07:24:16;;;;;;;19.20;18.10;;;;;;;;;;5098235;28;20177;-77
2023/01/16 07:26:44;;;;;;;18.75;17.65;;;;;;;;;;5096189;28;20301;-77
2023/01/16 07:29:11;;;;;;;19.20;18.20;;;;;;;;;;5095317;28;20206;-78
2023/01/16 07:31:40;;;;;;;19.08;18.17;;;;;;;;;;5094416;28;20673;-76
2023/01/16 07:34:07;;;;;;;19.77;18.67;;;;;;;;;;5093710;28;20204;-78
2023/01/16 07:36:34;;;;;;;19.67;18.67;;;;;;;;;;5096122;28;20229;-77
2023/01/16 07:39:01;;;;;;;18.67;17.77;;;;;;;;;;5094249;28;20613;-77
2023/01/16 07:41:28;;;;;;;19.70;18.60;;;;;;;;;;5094216;28;20375;-77
2023/01/16 07:43:55;;;;;;;19.20;18.23;;;;;;;;;;5093708;28;20200;-78
2023/01/16 07:46:22;;;;;;;19.98;18.75;;;;;;;;;;5094195;28;20582;-77
2023/01/16 07:48:52;;;;;;;19.90;18.80;;;;;;;;;;5094731;28;20617;-77
2023/01/16 07:51:19;;;;;;;18.98;17.95;;;;;;;;;;5095299;28;20204;-77
2023/01/16 07:53:46;;;;;;;18.52;17.63;;;;;;;;;;5094498;28;20229;-77
2023/01/16 07:56:13;;;;;;;18.35;17.45;;;;;;;;;;5095673;28;20240;-78
2023/01/16 07:58:42;;;;;;;17.50;16.60;;;;;;;;;;5094015;28;20216;-77
2023/01/16 08:01:10;;;;;;;18.85;17.88;;;;;;;;;;5092734;28;20766;-78
2023/01/16 08:03:37;;;;;;;19.45;18.42;;;;;;;;;;5093418;28;20258;-77
2023/01/16 08:06:06;;;;;;;18.67;17.67;;;;;;;;;;5093735;28;20246;-77
2023/01/16 08:08:33;;;;;;;19.00;17.80;;;;;;;;;;5094089;28;20487;-77
2023/01/16 08:11:34;;;;;;;18.45;17.45;;;;;;;;;;5093060;28;20687;-77
2023/01/16 08:13:47;;;;;;;19.75;18.55;;;;;;;;;;5092615;28;20237;-79
2023/01/16 08:16:14;;;;;;;19.90;18.50;;;;;;;;;;5093949;28;20224;-77
2023/01/16 08:18:41;;;;;;;19.02;17.92;;;;;;;;;;5093705;28;20575;-77
2023/01/16 08:21:10;;;;;;;19.08;17.98;;;;;;;;;;5093863;28;20262;-76
2023/01/16 08:23:38;;;;;;;18.95;17.95;;;;;;;;;;5092084;28;20277;-76
2023/01/16 08:26:05;;;;;;;19.13;17.98;;;;;;;;;;5093279;28;20228;-76
2023/01/16 08:28:32;;;;;;;19.65;18.50;;;;;;;;;;5094871;28;20207;-83
2023/01/16 08:31:07;;;;;;;19.30;18.00;;;;;;;;;;5080159;28;20198;-84
2023/01/16 08:33:34;;;;;;;19.23;17.92;;;;;;;;;;5080427;28;20198;-84
2023/01/16 08:36:02;;;;;;;19.15;18.10;;;;;;;;;;5079043;28;20819;-84
2023/01/16 08:38:30;;;;;;;19.45;18.20;;;;;;;;;;5081330;28;20279;-85
2023/01/16 08:40:57;;;;;;;19.63;18.63;;;;;;;;;;5082453;28;20278;-84
2023/01/16 08:51:46;;;;;;;20.17;18.88;;;;;;;;;;5081080;28;20243;-82
2023/01/16 08:54:14;;;;;;;20.27;19.17;;;;;;;;;;5079594;28;20259;-81
2023/01/16 08:56:42;;;;;;;19.30;18.20;;;;;;;;;;5079137;28;20248;-81
2023/01/16 08:59:09;;;;;;;20.35;19.17;;;;;;;;;;5080964;28;20212;-82
2023/01/16 09:01:38;;;;;;;19.20;18.20;;;;;;;;;;5078647;28;20264;-83
2023/01/16 09:04:05;;;;;;;19.60;18.53;;;;;;;;;;5081350;28;20216;-85
2023/01/16 09:06:35;;;;;;;19.58;18.58;;;;;;;;;;5080934;28;20528;-84
2023/01/16 09:09:02;;;;;;;19.25;18.25;;;;;;;;;;5085477;28;20221;-81
2023/01/16 09:14:15;;;;;;;19.05;18.05;;;;;;;;;;5082732;28;20207;-83
2023/01/16 09:16:42;;;;;;;19.73;18.63;;;;;;;;;;5083208;28;20230;-83
2023/01/16 09:19:09;;;;;;;18.77;17.88;;;;;;;;;;5083951;28;20211;-83
2023/01/16 09:21:36;;;;;;;20.00;18.90;;;;;;;;;;5084061;28;20254;-84
2023/01/16 09:24:04;;;;;;;19.58;18.58;;;;;;;;;;5084686;28;20440;-83
2023/01/16 09:26:32;;;;;;;19.55;18.55;;;;;;;;;;5084431;28;20357;-84
2023/01/16 09:28:59;;;;;;;20.40;19.35;;;;;;;;;;5084565;28;20251;-83
2023/01/16 09:31:26;;;;;;;19.45;18.40;;;;;;;;;;5086175;28;20193;-83
2023/01/16 09:33:54;;;;;;;20.10;18.90;;;;;;;;;;5081678;28;20275;-82
2023/01/16 09:36:21;;;;;;;19.30;18.10;;;;;;;;;;5083225;28;20257;-84
2023/01/16 09:38:48;;;;;;;20.00;18.75;;;;;;;;;;5083043;28;20202;-85
2023/01/16 09:43:35;;;;;;;19.02;18.02;;;;;;;;;;5083877;28;20222;-82
2023/01/16 09:44:07;;;;;;;19.08;18.08;;;;;;;;;;5105122;28;20227;-83
2023/01/16 09:46:37;;;;;;;19.33;18.33;;;;;;;;;;5106528;28;20213;-83
2023/01/16 09:49:05;;;;;;;21.80;20.40;;;;;;;;;;5107016;28;20193;-83
2023/01/16 09:51:34;;;;;;;19.38;18.33;;;;;;;;;;5106451;28;20255;-84
2023/01/16 09:59:37;;;;;;;19.27;18.15;;;;;;;;;;5095118;28;20370;-77
2023/01/16 10:02:10;;;;;;;18.60;17.50;;;;;;;;;;5096345;28;20206;-77
2023/01/16 10:04:37;;;;;;;19.48;18.17;;;;;;;;;;5096831;28;20460;-76
2023/01/16 10:07:11;;;;;;;19.42;18.33;;;;;;;;;;5095428;28;20233;-78
2023/01/16 10:09:41;;;;;;;19.30;18.30;;;;;;;;;;5096100;28;20633;-78
2023/01/16 10:12:10;;;;;;;19.23;18.15;;;;;;;;;;5096140;28;20209;-77
2023/01/16 10:14:51;;;;;;;20.15;18.95;;;;;;;;;;5095225;28;20219;-78
2023/01/16 10:17:19;;;;;;;21.08;19.85;;;;;;;;;;5096482;28;20232;-78
2023/01/16 10:19:54;;;;;;;19.88;18.60;;;;;;;;;;5097543;28;20213;-78
2023/01/16 10:22:34;;;;;;;18.77;17.77;;;;;;;;;;5096021;28;20591;-78
2023/01/16 10:25:07;;;;;;;18.67;17.77;;;;;;;;;;5096828;28;20193;-78
2023/01/16 10:27:37;;;;;;;18.80;17.80;;;;;;;;;;5097219;28;20224;-77
2023/01/16 10:30:10;;;;;;;18.88;17.95;;;;;;;;;;5096580;28;20208;-78
2023/01/16 10:32:39;;;;;;;19.20;18.23;;;;;;;;;;5097656;28;20205;-83
2023/01/16 10:35:13;;;;;;;18.77;17.77;;;;;;;;;;5103581;28;20662;-84
2023/01/16 10:37:41;;;;;;;18.90;17.80;;;;;;;;;;5105616;28;20286;-84
2023/01/16 10:40:13;;;;;;;19.13;18.13;;;;;;;;;;5105014;28;20297;-84
2023/01/16 10:51:01;;;;;;;18.83;17.92;;;;;;;;;;5105131;28;20193;-84
2023/01/16 10:53:28;;;;;;;19.90;18.75;;;;;;;;;;5105900;28;20263;-83
2023/01/16 10:55:56;;;;;;;19.35;18.30;;;;;;;;;;5106516;28;20212;-83
2023/01/16 10:58:26;;;;;;;19.15;18.13;;;;;;;;;;5106405;28;20228;-84
2023/01/16 11:00:57;;;;;;;19.33;18.33;;;;;;;;;;5105714;28;20210;-85
2023/01/16 11:03:28;;;;;;;20.60;19.40;;;;;;;;;;5102844;28;20786;-82
2023/01/16 11:06:06;;;;;;;20.47;19.33;;;;;;;;;;5100291;28;20185;-82
2023/01/16 11:08:34;;;;;;;19.35;18.30;;;;;;;;;;5099494;28;20465;-80
2023/01/16 11:11:01;;;;;;;19.20;18.30;;;;;;;;;;5099104;28;20197;-81
2023/01/16 11:19:16;;;;;;;18.88;17.90;;;;;;;;;;5103368;28;20205;-83
2023/01/16 11:21:44;;;;;;;19.30;18.20;;;;;;;;;;5100785;28;20229;-82
2023/01/16 11:24:15;;;;;;;19.55;18.55;;;;;;;;;;5100133;28;20478;-82
2023/01/16 11:26:52;;;;;;;20.93;19.73;;;;;;;;;;5099341;28;20240;-82
2023/01/16 11:29:19;;;;;;;19.42;18.42;;;;;;;;;;5099561;28;20486;-81
2023/01/16 11:31:54;;;;;;;19.90;18.90;;;;;;;;;;5099213;28;20202;-82
2023/01/16 11:34:25;;;;;;;19.50;18.50;;;;;;;;;;5099680;28;20281;-82
2023/01/16 11:36:54;;;;;;;19.27;18.30;;;;;;;;;;5099535;28;20793;-83
2023/01/16 11:39:22;;;;;;;19.58;18.55;;;;;;;;;;5099755;28;20426;-83
2023/01/16 11:41:49;;;;;;;19.05;18.05;;;;;;;;;;5099795;28;20274;-83
2023/01/16 11:47:05;;;;;;;19.27;18.03;;;;;;;;;;5100147;28;20481;-82
2023/01/16 11:49:35;;;;;;;19.23;18.23;;;;;;;;;;5099611;28;20442;-82
2023/01/16 11:52:03;;;;;;;19.50;18.40;;;;;;;;;;5099344;28;20478;-81
2023/01/16 11:54:31;;;;;;;20.45;19.20;;;;;;;;;;5098350;28;20423;-82
2023/01/16 11:57:03;;;;;;;20.08;18.70;;;;;;;;;;5102042;28;20640;-82
2023/01/16 11:59:54;;;;;;;19.92;18.92;;;;;;;;;;5101144;28;20259;-83
2023/01/16 12:02:28;;;;;;;19.57;18.30;;;;;;;;;;5084921;28;20236;-83
2023/01/16 12:07:49;;;;;;;19.73;18.53;;;;;;;;;;5097653;28;20233;-82
2023/01/16 12:10:31;;;;;;;19.58;18.58;;;;;;;;;;5099335;28;20493;-82
2023/01/16 12:15:51;;;;;;;19.40;18.35;;;;;;;;;;5099194;28;20761;-83
2023/01/16 12:18:23;;;;;;;19.40;18.10;;;;;;;;;;5098366;28;20220;-82
2023/01/16 12:20:54;;;;;;;19.17;18.17;;;;;;;;;;5098365;28;20843;-81
2023/01/16 12:23:48;;;;;;;19.98;18.70;;;;;;;;;;5097671;28;20450;-83
2023/01/16 12:26:20;;;;;;;19.20;18.20;;;;;;;;;;5061937;28;20225;-83
2023/01/16 12:28:55;;;;;;;19.20;17.90;;;;;;;;;;5099111;28;20178;-82
2023/01/16 12:31:38;;;;;;;18.98;17.88;;;;;;;;;;5098272;28;20197;-83
2023/01/16 12:34:19;;;;;;;19.58;18.48;;;;;;;;;;5091180;28;20200;-83
2023/01/16 12:36:52;;;;;;;19.95;18.95;;;;;;;;;;5095789;28;20628;-82
2023/01/16 12:39:22;;;;;;;20.15;18.85;;;;;;;;;;5098386;28;20606;-82
2023/01/16 12:44:42;;;;;;;23.10;21.40;;;;;;;;;;5077944;28;20248;-83
2023/01/16 12:47:18;;;;;;;19.10;18.10;;;;;;;;;;5089405;28;20229;-81
2023/01/16 12:49:52;;;;;;;19.20;18.20;;;;;;;;;;5099338;28;20214;-82
2023/01/16 12:52:28;;;;;;;19.00;17.90;;;;;;;;;;5098307;28;20203;-81
2023/01/16 12:55:06;;;;;;;18.60;17.70;;;;;;;;;;5097654;28;20776;-82
2023/01/16 12:57:37;;;;;;;18.40;17.50;;;;;;;;;;5097691;28;20291;-83
2023/01/16 13:00:07;;;;;;;18.98;17.95;;;;;;;;;;5097283;28;20216;-82
2023/01/16 13:02:37;;;;;;;20.17;18.83;;;;;;;;;;5098776;28;20244;-83
2023/01/16 13:05:12;;;;;;;18.80;17.80;;;;;;;;;;5097342;28;20194;-82
2023/01/16 13:07:42;;;;;;;19.65;18.65;;;;;;;;;;5101704;28;20528;-82
2023/01/16 13:15:50;;;;;;;19.20;18.30;;;;;;;;;;5102343;28;20593;-82
2023/01/16 13:18:20;;;;;;;19.88;18.88;;;;;;;;;;5102437;28;20206;-82
2023/01/16 13:20:49;;;;;;;19.73;18.73;;;;;;;;;;5102810;28;20198;-87
2023/01/16 13:23:18;;;;;;;19.20;18.20;;;;;;;;;;5100115;28;20560;-83
2023/01/16 13:25:46;;;;;;;19.47;18.47;;;;;;;;;;5101599;28;20531;-81
2023/01/16 13:28:19;;;;;;;20.30;18.90;;;;;;;;;;5102558;28;20484;-85
2023/01/16 13:30:46;;;;;;;24.47;21.97;;;;;;;;;;5103375;28;20440;-82
2023/01/16 13:33:15;;;;;;;23.40;21.40;;;;;;;;;;5101174;28;20451;-82
2023/01/16 13:35:47;;;;;;;19.42;18.33;;;;;;;;;;5100186;28;20527;-83
2023/01/16 13:38:32;;;;;;;21.10;19.80;;;;;;;;;;5101314;28;20228;-82
2023/01/16 13:41:14;;;;;;;20.08;19.05;;;;;;;;;;5089788;28;20430;-87
2023/01/16 13:46:28;;;;;;;18.70;17.80;;;;;;;;;;5108092;28;20216;-86
2023/01/16 13:48:58;;;;;;;19.00;18.00;;;;;;;;;;5104325;28;20423;-86
2023/01/16 13:51:25;;;;;;;19.08;18.08;;;;;;;;;;5104832;28;20212;-86
2023/01/16 13:53:54;;;;;;;19.63;18.53;;;;;;;;;;5103443;28;20199;-86
2023/01/16 13:56:24;;;;;;;19.37;18.37;;;;;;;;;;5104375;28;20979;-87
2023/01/16 13:58:55;;;;;;;19.40;18.25;;;;;;;;;;5104481;28;20479;-86
2023/01/16 14:01:46;;;;;;;19.37;18.37;;;;;;;;;;5106076;28;20191;-86
2023/01/16 14:04:33;;;;;;;19.92;18.90;;;;;;;;;;5082795;28;20954;-86
2023/01/16 14:10:05;;;;;;;19.33;18.33;;;;;;;;;;5104537;28;20255;-86
2023/01/16 14:12:37;;;;;;;19.43;18.43;;;;;;;;;;5104297;28;20429;-86
2023/01/16 14:18:17;;;;;;;20.45;19.15;;;;;;;;;;5103521;28;20470;-84
2023/01/16 14:20:46;;;;;;;19.30;18.25;;;;;;;;;;5102912;28;20613;-86
2023/01/16 14:26:03;;;;;;;20.47;19.27;;;;;;;;;;5102606;28;20407;-84
2023/01/16 14:29:07;;;;;;;19.50;18.50;;;;;;;;;;5102393;28;20812;-83
2023/01/16 14:31:39;;;;;;;19.52;18.40;;;;;;;;;;5101113;28;20492;-81
2023/01/16 14:34:06;;;;;;;20.17;19.02;;;;;;;;;;5101391;28;20191;-82
2023/01/16 14:36:35;;;;;;;19.95;18.95;;;;;;;;;;5101666;28;20577;-82
2023/01/16 14:39:02;;;;;;;20.40;19.30;;;;;;;;;;5102752;28;20271;-80
2023/01/16 14:56:01;;;;;;;21.58;20.38;;;;;;;;;;5099211;28;20197;-81
2023/01/16 14:58:33;;;;;;;20.45;19.35;;;;;;;;;;5100440;28;20692;-80
2023/01/16 15:02:18;;;;;;;20.50;19.40;;;;;;;;;;5100248;28;20207;-80
2023/01/16 15:04:01;;;;;;;20.57;19.50;;;;;;;;;;5097343;28;20495;-79
2023/01/16 15:06:33;;;;;;;21.57;20.27;;;;;;;;;;5100003;28;20503;-79
2023/01/16 15:09:00;;;;;;;21.45;20.25;;;;;;;;;;5099896;28;20437;-84
2023/01/16 15:11:34;;;;;;;20.90;19.77;;;;;;;;;;5102439;28;20266;-84
2023/01/16 15:22:36;;;;;;;19.85;18.83;;;;;;;;;;5099858;28;20565;-91
2023/01/16 15:25:07;;;;;;;19.63;18.63;;;;;;;;;;5099777;28;20201;-88
2023/01/16 15:27:36;;;;;;;20.27;19.27;;;;;;;;;;5098756;28;20222;-87
2023/01/16 15:30:05;;;;;;;20.20;19.20;;;;;;;;;;5099484;28;20205;-84
2023/01/16 15:32:52;;;;;;;20.08;18.98;;;;;;;;;;5101136;28;20247;-79
2023/01/16 15:35:22;;;;;;;20.15;19.05;;;;;;;;;;5101288;28;20189;-81
2023/01/16 15:37:51;;;;;;;19.67;18.67;;;;;;;;;;5100230;28;20282;-80
2023/01/16 15:40:23;;;;;;;20.52;19.33;;;;;;;;;;5101255;28;20213;-79
2023/01/16 15:48:31;;;;;;;19.20;18.20;;;;;;;;;;5084492;28;20289;-78
2023/01/16 15:51:00;;;;;;;19.75;18.40;;;;;;;;;;5100367;28;20655;-77
2023/01/16 15:53:40;;;;;;;19.30;18.30;;;;;;;;;;5101499;28;20208;-82
2023/01/16 15:56:08;;;;;;;18.98;17.98;;;;;;;;;;5103442;28;20628;-83
2023/01/16 15:58:37;;;;;;;19.88;18.77;;;;;;;;;;5105108;28;20208;-81
2023/01/16 16:01:05;;;;;;;19.00;18.00;;;;;;;;;;5105399;28;20205;-83
2023/01/16 16:03:37;;;;;;;20.88;19.52;;;;;;;;;;5105388;28;20646;-82
2023/01/16 16:06:07;;;;;;;21.03;19.83;;;;;;;;;;5106401;28;20269;-82
2023/01/16 16:08:36;;;;;;;19.88;18.80;;;;;;;;;;5108064;28;20451;-82
2023/01/16 16:13:50;;;;;;;19.20;18.20;;;;;;;;;;5107860;28;20217;-82
2023/01/16 16:19:04;;;;;;;18.67;17.67;;;;;;;;;;5106736;28;20246;-83
2023/01/16 16:21:34;;;;;;;19.50;18.50;;;;;;;;;;5107116;28;20224;-83